sensor_id;sensor_type;location;lat;lon;timestamp;P1;durP1;ratioP1;P2;durP2;ratioP2
51459;SDS011;37534;39.772;2.718;2023-08-31T00:02:09;3.20;;;2.25;;
51459;SDS011;37534;39.772;2.718;2023-08-31T00:04:35;5.43;;;2.70;;
51459;SDS011;37534;39.772;2.718;2023-08-31T00:07:01;3.50;;;2.22;;
51459;SDS011;37534;39.772;2.718;2023-08-31T00:09:26;3.88;;;3.20;;
51459;SDS011;37534;39.772;2.718;2023-08-31T00:11:52;5.07;;;4.25;;
51459;SDS011;37534;39.772;2.718;2023-08-31T00:14:18;7.90;;;3.35;;
51459;SDS011;37534;39.772;2.718;2023-08-31T00:16:44;5.85;;;3.50;;
51459;SDS011;37534;39.772;2.718;2023-08-31T00:19:11;5.45;;;3.55;;
51459;SDS011;37534;39.772;2.718;2023-08-31T00:21:37;4.72;;;3.00;;
51459;SDS011;37534;39.772;2.718;2023-08-31T00:24:03;8.18;;;2.88;;
51459;SDS011;37534;39.772;2.718;2023-08-31T00:26:29;7.68;;;2.80;;
51459;SDS011;37534;39.772;2.718;2023-08-31T00:28:56;13.95;;;3.03;;
51459;SDS011;37534;39.772;2.718;2023-08-31T00:31:23;3.70;;;2.88;;
51459;SDS011;37534;39.772;2.718;2023-08-31T00:33:49;3.83;;;2.80;;
51459;SDS011;37534;39.772;2.718;2023-08-31T00:36:14;11.05;;;2.95;;
51459;SDS011;37534;39.772;2.718;2023-08-31T00:38:40;5.00;;;3.38;;
51459;SDS011;37534;39.772;2.718;2023-08-31T00:41:06;4.97;;;2.10;;
51459;SDS011;37534;39.772;2.718;2023-08-31T00:43:31;3.80;;;2.45;;
51459;SDS011;37534;39.772;2.718;2023-08-31T00:45:57;1.92;;;1.83;;
51459;SDS011;37534;39.772;2.718;2023-08-31T00:48:23;3.03;;;2.53;;
51459;SDS011;37534;39.772;2.718;2023-08-31T00:50:49;3.15;;;2.50;;
51459;SDS011;37534;39.772;2.718;2023-08-31T00:53:16;4.35;;;3.40;;
51459;SDS011;37534;39.772;2.718;2023-08-31T00:55:43;6.25;;;5.00;;
51459;SDS011;37534;39.772;2.718;2023-08-31T00:58:10;8.13;;;5.82;;
51459;SDS011;37534;39.772;2.718;2023-08-31T01:03:34;14.55;;;8.65;;
51459;SDS011;37534;39.772;2.718;2023-08-31T01:06:12;11.70;;;7.05;;
51459;SDS011;37534;39.772;2.718;2023-08-31T01:14:38;4.35;;;2.78;;
51459;SDS011;37534;39.772;2.718;2023-08-31T01:17:09;5.88;;;3.25;;
51459;SDS011;37534;39.772;2.718;2023-08-31T01:25:12;3.63;;;2.80;;
51459;SDS011;37534;39.772;2.718;2023-08-31T01:27:38;5.10;;;3.22;;
51459;SDS011;37534;39.772;2.718;2023-08-31T01:30:05;4.10;;;2.90;;
51459;SDS011;37534;39.772;2.718;2023-08-31T01:32:31;3.10;;;2.80;;
51459;SDS011;37534;39.772;2.718;2023-08-31T01:34:58;5.78;;;3.38;;
51459;SDS011;37534;39.772;2.718;2023-08-31T01:40:16;7.78;;;4.45;;
51459;SDS011;37534;39.772;2.718;2023-08-31T01:42:46;6.88;;;4.13;;
51459;SDS011;37534;39.772;2.718;2023-08-31T01:45:14;7.75;;;3.03;;
51459;SDS011;37534;39.772;2.718;2023-08-31T01:47:44;3.25;;;2.53;;
51459;SDS011;37534;39.772;2.718;2023-08-31T01:50:11;6.40;;;2.78;;
51459;SDS011;37534;39.772;2.718;2023-08-31T01:52:36;5.40;;;2.63;;
51459;SDS011;37534;39.772;2.718;2023-08-31T01:55:04;6.82;;;2.70;;
51459;SDS011;37534;39.772;2.718;2023-08-31T01:57:33;3.03;;;2.75;;
51459;SDS011;37534;39.772;2.718;2023-08-31T01:59:59;5.00;;;2.78;;
51459;SDS011;37534;39.772;2.718;2023-08-31T02:02:25;3.42;;;2.53;;
51459;SDS011;37534;39.772;2.718;2023-08-31T02:04:50;2.33;;;2.22;;
51459;SDS011;37534;39.772;2.718;2023-08-31T02:07:17;3.08;;;2.70;;
51459;SDS011;37534;39.772;2.718;2023-08-31T02:09:43;2.45;;;2.25;;
51459;SDS011;37534;39.772;2.718;2023-08-31T02:12:08;3.55;;;2.65;;
51459;SDS011;37534;39.772;2.718;2023-08-31T02:14:37;3.22;;;2.92;;
51459;SDS011;37534;39.772;2.718;2023-08-31T02:17:03;3.75;;;2.30;;
51459;SDS011;37534;39.772;2.718;2023-08-31T02:19:29;3.17;;;2.33;;
51459;SDS011;37534;39.772;2.718;2023-08-31T02:21:58;2.88;;;2.40;;
51459;SDS011;37534;39.772;2.718;2023-08-31T02:24:23;9.85;;;4.15;;
51459;SDS011;37534;39.772;2.718;2023-08-31T02:26:49;9.10;;;4.18;;
51459;SDS011;37534;39.772;2.718;2023-08-31T02:29:15;10.30;;;3.90;;
51459;SDS011;37534;39.772;2.718;2023-08-31T02:31:40;4.95;;;2.95;;
51459;SDS011;37534;39.772;2.718;2023-08-31T02:34:07;3.72;;;3.00;;
51459;SDS011;37534;39.772;2.718;2023-08-31T02:36:32;7.10;;;3.78;;
51459;SDS011;37534;39.772;2.718;2023-08-31T02:38:58;6.88;;;3.28;;
51459;SDS011;37534;39.772;2.718;2023-08-31T02:41:23;4.15;;;3.20;;
51459;SDS011;37534;39.772;2.718;2023-08-31T02:43:52;6.13;;;4.03;;
51459;SDS011;37534;39.772;2.718;2023-08-31T02:46:18;4.15;;;3.13;;
51459;SDS011;37534;39.772;2.718;2023-08-31T02:48:44;4.72;;;3.75;;
51459;SDS011;37534;39.772;2.718;2023-08-31T02:51:09;7.00;;;3.60;;
51459;SDS011;37534;39.772;2.718;2023-08-31T02:53:35;4.95;;;3.15;;
51459;SDS011;37534;39.772;2.718;2023-08-31T02:56:01;3.17;;;2.67;;
51459;SDS011;37534;39.772;2.718;2023-08-31T02:58:27;4.60;;;3.20;;
51459;SDS011;37534;39.772;2.718;2023-08-31T03:00:52;3.42;;;3.10;;
51459;SDS011;37534;39.772;2.718;2023-08-31T03:03:18;5.95;;;3.35;;
51459;SDS011;37534;39.772;2.718;2023-08-31T03:05:44;4.70;;;3.60;;
51459;SDS011;37534;39.772;2.718;2023-08-31T03:08:10;5.03;;;3.08;;
51459;SDS011;37534;39.772;2.718;2023-08-31T03:10:36;4.43;;;2.92;;
51459;SDS011;37534;39.772;2.718;2023-08-31T03:13:03;4.93;;;3.70;;
51459;SDS011;37534;39.772;2.718;2023-08-31T03:15:29;4.38;;;2.67;;
51459;SDS011;37534;39.772;2.718;2023-08-31T03:17:55;4.15;;;3.17;;
51459;SDS011;37534;39.772;2.718;2023-08-31T03:20:20;4.40;;;3.45;;
51459;SDS011;37534;39.772;2.718;2023-08-31T03:22:46;7.78;;;4.20;;
51459;SDS011;37534;39.772;2.718;2023-08-31T03:25:11;5.45;;;3.33;;
51459;SDS011;37534;39.772;2.718;2023-08-31T03:27:37;4.63;;;3.65;;
51459;SDS011;37534;39.772;2.718;2023-08-31T03:30:03;7.13;;;3.67;;
51459;SDS011;37534;39.772;2.718;2023-08-31T03:32:29;3.08;;;2.88;;
51459;SDS011;37534;39.772;2.718;2023-08-31T03:34:54;5.97;;;3.83;;
51459;SDS011;37534;39.772;2.718;2023-08-31T03:37:20;6.28;;;3.75;;
51459;SDS011;37534;39.772;2.718;2023-08-31T03:39:49;5.35;;;2.88;;
51459;SDS011;37534;39.772;2.718;2023-08-31T03:42:15;15.27;;;3.15;;
51459;SDS011;37534;39.772;2.718;2023-08-31T03:44:41;5.47;;;3.17;;
51459;SDS011;37534;39.772;2.718;2023-08-31T03:47:07;4.40;;;3.53;;
51459;SDS011;37534;39.772;2.718;2023-08-31T03:49:32;2.72;;;2.20;;
51459;SDS011;37534;39.772;2.718;2023-08-31T03:51:58;4.07;;;2.92;;
51459;SDS011;37534;39.772;2.718;2023-08-31T03:54:24;3.03;;;2.78;;
51459;SDS011;37534;39.772;2.718;2023-08-31T03:56:50;7.03;;;3.08;;
51459;SDS011;37534;39.772;2.718;2023-08-31T03:59:16;5.10;;;3.13;;
51459;SDS011;37534;39.772;2.718;2023-08-31T04:01:41;3.53;;;2.92;;
51459;SDS011;37534;39.772;2.718;2023-08-31T04:04:07;2.92;;;2.55;;
51459;SDS011;37534;39.772;2.718;2023-08-31T04:06:33;4.00;;;2.80;;
51459;SDS011;37534;39.772;2.718;2023-08-31T04:08:59;6.47;;;2.83;;
51459;SDS011;37534;39.772;2.718;2023-08-31T04:11:25;4.20;;;2.80;;
51459;SDS011;37534;39.772;2.718;2023-08-31T04:13:51;3.30;;;3.00;;
51459;SDS011;37534;39.772;2.718;2023-08-31T04:16:17;6.30;;;3.55;;
51459;SDS011;37534;39.772;2.718;2023-08-31T04:18:42;2.78;;;2.53;;
51459;SDS011;37534;39.772;2.718;2023-08-31T04:21:08;4.32;;;2.88;;
51459;SDS011;37534;39.772;2.718;2023-08-31T04:23:34;5.85;;;3.40;;
51459;SDS011;37534;39.772;2.718;2023-08-31T04:25:59;3.58;;;3.28;;
51459;SDS011;37534;39.772;2.718;2023-08-31T04:28:25;3.97;;;3.05;;
51459;SDS011;37534;39.772;2.718;2023-08-31T04:30:51;3.55;;;3.05;;
51459;SDS011;37534;39.772;2.718;2023-08-31T04:33:17;3.08;;;2.78;;
51459;SDS011;37534;39.772;2.718;2023-08-31T04:35:43;4.40;;;2.90;;
51459;SDS011;37534;39.772;2.718;2023-08-31T04:38:09;3.80;;;3.38;;
51459;SDS011;37534;39.772;2.718;2023-08-31T04:40:34;4.70;;;3.28;;
51459;SDS011;37534;39.772;2.718;2023-08-31T04:43:01;8.25;;;3.00;;
51459;SDS011;37534;39.772;2.718;2023-08-31T04:45:27;3.17;;;2.83;;
51459;SDS011;37534;39.772;2.718;2023-08-31T04:47:53;3.97;;;3.25;;
51459;SDS011;37534;39.772;2.718;2023-08-31T04:50:19;4.57;;;2.78;;
51459;SDS011;37534;39.772;2.718;2023-08-31T04:52:44;11.60;;;2.45;;
51459;SDS011;37534;39.772;2.718;2023-08-31T04:55:12;4.82;;;3.00;;
51459;SDS011;37534;39.772;2.718;2023-08-31T04:57:38;3.90;;;3.08;;
51459;SDS011;37534;39.772;2.718;2023-08-31T05:00:04;5.07;;;3.13;;
51459;SDS011;37534;39.772;2.718;2023-08-31T05:02:34;6.70;;;2.85;;
51459;SDS011;37534;39.772;2.718;2023-08-31T05:05:00;5.68;;;3.30;;
51459;SDS011;37534;39.772;2.718;2023-08-31T05:07:25;5.32;;;3.58;;
51459;SDS011;37534;39.772;2.718;2023-08-31T05:09:51;4.35;;;3.30;;
51459;SDS011;37534;39.772;2.718;2023-08-31T05:12:16;4.88;;;3.10;;
51459;SDS011;37534;39.772;2.718;2023-08-31T05:14:42;7.00;;;3.67;;
51459;SDS011;37534;39.772;2.718;2023-08-31T05:17:08;3.97;;;3.33;;
51459;SDS011;37534;39.772;2.718;2023-08-31T05:19:34;9.95;;;3.55;;
51459;SDS011;37534;39.772;2.718;2023-08-31T05:21:59;3.75;;;3.00;;
51459;SDS011;37534;39.772;2.718;2023-08-31T05:24:25;9.07;;;4.18;;
51459;SDS011;37534;39.772;2.718;2023-08-31T05:26:51;4.38;;;3.30;;
51459;SDS011;37534;39.772;2.718;2023-08-31T05:29:16;6.00;;;3.38;;
51459;SDS011;37534;39.772;2.718;2023-08-31T05:31:42;6.35;;;3.30;;
51459;SDS011;37534;39.772;2.718;2023-08-31T05:34:10;5.60;;;3.58;;
51459;SDS011;37534;39.772;2.718;2023-08-31T05:36:36;4.15;;;3.22;;
51459;SDS011;37534;39.772;2.718;2023-08-31T05:39:02;4.47;;;3.10;;
51459;SDS011;37534;39.772;2.718;2023-08-31T05:41:28;6.78;;;3.60;;
51459;SDS011;37534;39.772;2.718;2023-08-31T05:43:53;5.82;;;3.85;;
51459;SDS011;37534;39.772;2.718;2023-08-31T05:46:19;10.07;;;3.65;;
51459;SDS011;37534;39.772;2.718;2023-08-31T05:48:45;5.15;;;3.25;;
51459;SDS011;37534;39.772;2.718;2023-08-31T05:51:10;5.85;;;3.92;;
51459;SDS011;37534;39.772;2.718;2023-08-31T05:53:36;5.22;;;3.40;;
51459;SDS011;37534;39.772;2.718;2023-08-31T05:56:02;5.85;;;3.45;;
51459;SDS011;37534;39.772;2.718;2023-08-31T05:58:32;5.15;;;3.40;;
51459;SDS011;37534;39.772;2.718;2023-08-31T06:00:59;4.88;;;3.50;;
51459;SDS011;37534;39.772;2.718;2023-08-31T06:03:25;6.20;;;4.13;;
51459;SDS011;37534;39.772;2.718;2023-08-31T06:05:51;6.28;;;3.92;;
51459;SDS011;37534;39.772;2.718;2023-08-31T06:08:16;12.95;;;4.20;;
51459;SDS011;37534;39.772;2.718;2023-08-31T06:10:44;6.47;;;4.90;;
51459;SDS011;37534;39.772;2.718;2023-08-31T06:13:10;8.10;;;3.80;;
51459;SDS011;37534;39.772;2.718;2023-08-31T06:15:36;8.40;;;3.97;;
51459;SDS011;37534;39.772;2.718;2023-08-31T06:18:01;6.10;;;4.68;;
51459;SDS011;37534;39.772;2.718;2023-08-31T06:20:27;7.40;;;4.30;;
51459;SDS011;37534;39.772;2.718;2023-08-31T06:22:53;10.35;;;4.40;;
51459;SDS011;37534;39.772;2.718;2023-08-31T06:25:18;8.63;;;5.78;;
51459;SDS011;37534;39.772;2.718;2023-08-31T06:27:44;6.43;;;3.85;;
51459;SDS011;37534;39.772;2.718;2023-08-31T06:30:11;12.65;;;6.70;;
51459;SDS011;37534;39.772;2.718;2023-08-31T06:32:43;7.18;;;6.47;;
51459;SDS011;37534;39.772;2.718;2023-08-31T06:35:10;10.43;;;7.95;;
51459;SDS011;37534;39.772;2.718;2023-08-31T06:37:37;14.20;;;9.10;;
51459;SDS011;37534;39.772;2.718;2023-08-31T06:40:04;14.15;;;9.77;;
51459;SDS011;37534;39.772;2.718;2023-08-31T06:42:30;13.82;;;9.00;;
51459;SDS011;37534;39.772;2.718;2023-08-31T06:44:56;18.77;;;10.30;;
51459;SDS011;37534;39.772;2.718;2023-08-31T06:47:22;16.42;;;9.65;;
51459;SDS011;37534;39.772;2.718;2023-08-31T06:49:48;13.13;;;10.43;;
51459;SDS011;37534;39.772;2.718;2023-08-31T06:52:13;20.48;;;11.82;;
51459;SDS011;37534;39.772;2.718;2023-08-31T06:54:39;19.05;;;10.15;;
51459;SDS011;37534;39.772;2.718;2023-08-31T06:57:05;13.38;;;8.77;;
51459;SDS011;37534;39.772;2.718;2023-08-31T06:59:30;11.68;;;7.28;;
51459;SDS011;37534;39.772;2.718;2023-08-31T07:01:56;10.85;;;7.90;;
51459;SDS011;37534;39.772;2.718;2023-08-31T07:04:21;10.02;;;7.03;;
51459;SDS011;37534;39.772;2.718;2023-08-31T07:06:47;9.48;;;7.35;;
51459;SDS011;37534;39.772;2.718;2023-08-31T07:09:12;11.98;;;9.07;;
51459;SDS011;37534;39.772;2.718;2023-08-31T07:11:38;21.30;;;8.75;;
51459;SDS011;37534;39.772;2.718;2023-08-31T07:14:03;12.90;;;8.98;;
51459;SDS011;37534;39.772;2.718;2023-08-31T07:16:29;11.88;;;8.98;;
51459;SDS011;37534;39.772;2.718;2023-08-31T07:18:54;15.82;;;7.47;;
51459;SDS011;37534;39.772;2.718;2023-08-31T07:21:20;10.40;;;7.28;;
51459;SDS011;37534;39.772;2.718;2023-08-31T07:23:45;14.52;;;7.50;;
51459;SDS011;37534;39.772;2.718;2023-08-31T07:26:11;12.82;;;7.18;;
51459;SDS011;37534;39.772;2.718;2023-08-31T07:28:37;5.43;;;4.93;;
51459;SDS011;37534;39.772;2.718;2023-08-31T07:33:32;14.50;;;5.50;;
51459;SDS011;37534;39.772;2.718;2023-08-31T07:36:00;9.93;;;5.05;;
51459;SDS011;37534;39.772;2.718;2023-08-31T07:38:26;7.07;;;4.07;;
51459;SDS011;37534;39.772;2.718;2023-08-31T07:40:52;3.50;;;2.72;;
51459;SDS011;37534;39.772;2.718;2023-08-31T07:43:18;4.75;;;3.13;;
51459;SDS011;37534;39.772;2.718;2023-08-31T07:45:44;4.28;;;2.75;;
51459;SDS011;37534;39.772;2.718;2023-08-31T07:48:09;4.45;;;2.60;;
51459;SDS011;37534;39.772;2.718;2023-08-31T07:50:35;5.13;;;2.50;;
51459;SDS011;37534;39.772;2.718;2023-08-31T07:53:01;4.25;;;2.42;;
51459;SDS011;37534;39.772;2.718;2023-08-31T07:55:26;12.38;;;2.67;;
51459;SDS011;37534;39.772;2.718;2023-08-31T07:57:52;3.13;;;2.17;;
51459;SDS011;37534;39.772;2.718;2023-08-31T08:00:18;4.82;;;2.30;;
51459;SDS011;37534;39.772;2.718;2023-08-31T08:02:46;4.32;;;2.10;;
51459;SDS011;37534;39.772;2.718;2023-08-31T08:05:12;3.00;;;2.47;;
51459;SDS011;37534;39.772;2.718;2023-08-31T08:07:37;4.53;;;2.05;;
51459;SDS011;37534;39.772;2.718;2023-08-31T08:10:03;2.92;;;1.92;;
51459;SDS011;37534;39.772;2.718;2023-08-31T08:12:42;10.35;;;2.40;;
51459;SDS011;37534;39.772;2.718;2023-08-31T08:15:11;6.15;;;2.50;;
51459;SDS011;37534;39.772;2.718;2023-08-31T08:17:37;3.38;;;2.03;;
51459;SDS011;37534;39.772;2.718;2023-08-31T08:20:03;7.90;;;2.50;;
51459;SDS011;37534;39.772;2.718;2023-08-31T08:22:30;5.50;;;2.15;;
51459;SDS011;37534;39.772;2.718;2023-08-31T08:24:55;2.33;;;1.98;;
51459;SDS011;37534;39.772;2.718;2023-08-31T08:27:21;3.03;;;2.17;;
51459;SDS011;37534;39.772;2.718;2023-08-31T08:29:47;9.70;;;7.13;;
51459;SDS011;37534;39.772;2.718;2023-08-31T08:32:13;32.25;;;16.15;;
51459;SDS011;37534;39.772;2.718;2023-08-31T08:34:38;32.78;;;15.65;;
51459;SDS011;37534;39.772;2.718;2023-08-31T08:37:04;16.45;;;11.45;;
51459;SDS011;37534;39.772;2.718;2023-08-31T08:39:30;11.65;;;7.50;;
51459;SDS011;37534;39.772;2.718;2023-08-31T08:41:59;17.45;;;8.77;;
51459;SDS011;37534;39.772;2.718;2023-08-31T08:44:31;10.02;;;7.43;;
51459;SDS011;37534;39.772;2.718;2023-08-31T08:46:58;6.00;;;4.68;;
51459;SDS011;37534;39.772;2.718;2023-08-31T08:49:24;13.43;;;4.88;;
51459;SDS011;37534;39.772;2.718;2023-08-31T08:51:51;5.82;;;3.38;;
51459;SDS011;37534;39.772;2.718;2023-08-31T08:54:21;5.43;;;3.90;;
51459;SDS011;37534;39.772;2.718;2023-08-31T08:56:47;4.70;;;3.67;;
51459;SDS011;37534;39.772;2.718;2023-08-31T08:59:13;5.63;;;2.95;;
51459;SDS011;37534;39.772;2.718;2023-08-31T09:01:39;3.22;;;2.53;;
51459;SDS011;37534;39.772;2.718;2023-08-31T09:04:05;6.90;;;2.50;;
51459;SDS011;37534;39.772;2.718;2023-08-31T09:06:34;4.40;;;2.42;;
51459;SDS011;37534;39.772;2.718;2023-08-31T09:09:00;7.03;;;3.25;;
51459;SDS011;37534;39.772;2.718;2023-08-31T09:11:26;7.53;;;3.13;;
51459;SDS011;37534;39.772;2.718;2023-08-31T09:13:51;6.63;;;3.13;;
51459;SDS011;37534;39.772;2.718;2023-08-31T09:16:28;5.45;;;2.70;;
51459;SDS011;37534;39.772;2.718;2023-08-31T09:18:55;4.07;;;3.00;;
51459;SDS011;37534;39.772;2.718;2023-08-31T09:21:21;5.32;;;2.72;;
51459;SDS011;37534;39.772;2.718;2023-08-31T09:23:58;5.15;;;2.72;;
51459;SDS011;37534;39.772;2.718;2023-08-31T09:26:24;6.32;;;2.03;;
51459;SDS011;37534;39.772;2.718;2023-08-31T09:28:49;6.60;;;2.30;;
51459;SDS011;37534;39.772;2.718;2023-08-31T09:31:15;5.72;;;2.35;;
51459;SDS011;37534;39.772;2.718;2023-08-31T09:33:51;4.63;;;2.30;;
51459;SDS011;37534;39.772;2.718;2023-08-31T09:36:17;2.42;;;1.85;;
51459;SDS011;37534;39.772;2.718;2023-08-31T09:38:43;3.47;;;2.25;;
51459;SDS011;37534;39.772;2.718;2023-08-31T09:41:10;5.78;;;2.85;;
51459;SDS011;37534;39.772;2.718;2023-08-31T09:43:36;4.43;;;2.00;;
51459;SDS011;37534;39.772;2.718;2023-08-31T09:46:02;4.93;;;2.15;;
51459;SDS011;37534;39.772;2.718;2023-08-31T09:48:28;3.78;;;2.10;;
51459;SDS011;37534;39.772;2.718;2023-08-31T09:50:55;5.28;;;2.17;;
51459;SDS011;37534;39.772;2.718;2023-08-31T09:53:21;5.47;;;2.10;;
51459;SDS011;37534;39.772;2.718;2023-08-31T09:55:48;2.60;;;1.92;;
51459;SDS011;37534;39.772;2.718;2023-08-31T09:58:17;2.17;;;1.60;;
51459;SDS011;37534;39.772;2.718;2023-08-31T10:00:45;7.15;;;1.92;;
51459;SDS011;37534;39.772;2.718;2023-08-31T10:03:11;3.08;;;1.95;;
51459;SDS011;37534;39.772;2.718;2023-08-31T10:05:43;5.85;;;2.10;;
51459;SDS011;37534;39.772;2.718;2023-08-31T10:08:10;2.60;;;2.05;;
51459;SDS011;37534;39.772;2.718;2023-08-31T10:10:36;5.80;;;2.20;;
51459;SDS011;37534;39.772;2.718;2023-08-31T10:13:03;3.10;;;2.00;;
51459;SDS011;37534;39.772;2.718;2023-08-31T10:15:33;3.67;;;2.03;;
51459;SDS011;37534;39.772;2.718;2023-08-31T10:18:01;5.28;;;2.28;;
51459;SDS011;37534;39.772;2.718;2023-08-31T10:20:30;3.40;;;1.45;;
51459;SDS011;37534;39.772;2.718;2023-08-31T10:23:03;5.03;;;1.88;;
51459;SDS011;37534;39.772;2.718;2023-08-31T10:28:17;3.25;;;1.83;;
51459;SDS011;37534;39.772;2.718;2023-08-31T10:31:00;3.80;;;1.60;;
51459;SDS011;37534;39.772;2.718;2023-08-31T10:33:39;4.35;;;2.38;;
51459;SDS011;37534;39.772;2.718;2023-08-31T10:36:13;5.25;;;2.17;;
51459;SDS011;37534;39.772;2.718;2023-08-31T10:38:38;3.00;;;1.90;;
51459;SDS011;37534;39.772;2.718;2023-08-31T10:43:54;4.70;;;2.17;;
51459;SDS011;37534;39.772;2.718;2023-08-31T10:46:32;2.42;;;1.58;;
51459;SDS011;37534;39.772;2.718;2023-08-31T10:51:41;3.20;;;2.13;;
51459;SDS011;37534;39.772;2.718;2023-08-31T10:56:52;5.90;;;1.77;;
51459;SDS011;37534;39.772;2.718;2023-08-31T10:59:22;3.25;;;2.15;;
51459;SDS011;37534;39.772;2.718;2023-08-31T11:04:21;1.98;;;1.75;;
51459;SDS011;37534;39.772;2.718;2023-08-31T11:06:47;3.40;;;2.33;;
51459;SDS011;37534;39.772;2.718;2023-08-31T11:09:20;4.40;;;1.92;;
51459;SDS011;37534;39.772;2.718;2023-08-31T11:11:47;1.40;;;1.30;;
51459;SDS011;37534;39.772;2.718;2023-08-31T11:14:13;2.83;;;2.00;;
51459;SDS011;37534;39.772;2.718;2023-08-31T11:16:40;1.95;;;1.75;;
51459;SDS011;37534;39.772;2.718;2023-08-31T11:19:06;2.45;;;1.67;;
51459;SDS011;37534;39.772;2.718;2023-08-31T11:21:32;3.30;;;1.90;;
51459;SDS011;37534;39.772;2.718;2023-08-31T11:23:58;2.08;;;1.65;;
51459;SDS011;37534;39.772;2.718;2023-08-31T11:26:25;3.08;;;1.58;;
51459;SDS011;37534;39.772;2.718;2023-08-31T11:28:51;2.90;;;1.92;;
51459;SDS011;37534;39.772;2.718;2023-08-31T11:31:23;2.35;;;2.15;;
51459;SDS011;37534;39.772;2.718;2023-08-31T11:33:49;5.00;;;1.98;;
51459;SDS011;37534;39.772;2.718;2023-08-31T11:36:15;2.97;;;1.80;;
51459;SDS011;37534;39.772;2.718;2023-08-31T11:38:43;6.40;;;2.10;;
51459;SDS011;37534;39.772;2.718;2023-08-31T11:41:09;2.08;;;1.45;;
51459;SDS011;37534;39.772;2.718;2023-08-31T11:43:35;1.73;;;1.38;;
51459;SDS011;37534;39.772;2.718;2023-08-31T11:46:01;7.68;;;1.77;;
51459;SDS011;37534;39.772;2.718;2023-08-31T11:48:28;4.60;;;2.13;;
51459;SDS011;37534;39.772;2.718;2023-08-31T11:50:54;2.15;;;1.73;;
51459;SDS011;37534;39.772;2.718;2023-08-31T11:53:20;4.65;;;1.98;;
51459;SDS011;37534;39.772;2.718;2023-08-31T11:55:49;4.10;;;2.17;;
51459;SDS011;37534;39.772;2.718;2023-08-31T11:58:18;2.47;;;1.73;;
51459;SDS011;37534;39.772;2.718;2023-08-31T12:00:59;5.97;;;2.10;;
51459;SDS011;37534;39.772;2.718;2023-08-31T12:03:25;3.53;;;2.08;;
51459;SDS011;37534;39.772;2.718;2023-08-31T12:05:52;5.18;;;2.00;;
51459;SDS011;37534;39.772;2.718;2023-08-31T12:08:24;4.72;;;1.80;;
51459;SDS011;37534;39.772;2.718;2023-08-31T12:10:51;2.28;;;2.08;;
51459;SDS011;37534;39.772;2.718;2023-08-31T12:13:17;2.85;;;1.90;;
51459;SDS011;37534;39.772;2.718;2023-08-31T12:15:42;2.33;;;1.98;;
51459;SDS011;37534;39.772;2.718;2023-08-31T12:18:10;4.60;;;1.95;;
51459;SDS011;37534;39.772;2.718;2023-08-31T12:20:46;3.65;;;1.77;;
51459;SDS011;37534;39.772;2.718;2023-08-31T12:23:16;2.00;;;1.70;;
51459;SDS011;37534;39.772;2.718;2023-08-31T12:25:46;3.03;;;2.08;;
51459;SDS011;37534;39.772;2.718;2023-08-31T12:30:38;3.70;;;1.97;;
51459;SDS011;37534;39.772;2.718;2023-08-31T12:33:03;8.13;;;2.10;;
51459;SDS011;37534;39.772;2.718;2023-08-31T12:35:30;3.45;;;2.03;;
51459;SDS011;37534;39.772;2.718;2023-08-31T12:37:55;4.38;;;2.05;;
51459;SDS011;37534;39.772;2.718;2023-08-31T12:40:22;5.90;;;2.30;;
51459;SDS011;37534;39.772;2.718;2023-08-31T12:42:48;3.83;;;1.88;;
51459;SDS011;37534;39.772;2.718;2023-08-31T12:45:13;2.90;;;2.10;;
51459;SDS011;37534;39.772;2.718;2023-08-31T12:47:39;4.45;;;2.28;;
51459;SDS011;37534;39.772;2.718;2023-08-31T12:50:04;2.88;;;1.92;;
51459;SDS011;37534;39.772;2.718;2023-08-31T12:52:30;2.17;;;1.90;;
51459;SDS011;37534;39.772;2.718;2023-08-31T12:54:56;2.65;;;2.05;;
51459;SDS011;37534;39.772;2.718;2023-08-31T12:57:22;7.68;;;2.40;;
51459;SDS011;37534;39.772;2.718;2023-08-31T12:59:47;2.53;;;1.90;;
51459;SDS011;37534;39.772;2.718;2023-08-31T13:02:13;3.65;;;2.03;;
51459;SDS011;37534;39.772;2.718;2023-08-31T13:04:38;3.58;;;2.50;;
51459;SDS011;37534;39.772;2.718;2023-08-31T13:07:04;6.03;;;1.92;;
51459;SDS011;37534;39.772;2.718;2023-08-31T13:09:30;3.75;;;1.75;;
51459;SDS011;37534;39.772;2.718;2023-08-31T13:11:56;2.30;;;1.50;;
51459;SDS011;37534;39.772;2.718;2023-08-31T13:14:22;7.63;;;2.42;;
51459;SDS011;37534;39.772;2.718;2023-08-31T13:16:47;4.38;;;2.35;;
51459;SDS011;37534;39.772;2.718;2023-08-31T13:19:13;4.30;;;2.00;;
51459;SDS011;37534;39.772;2.718;2023-08-31T13:21:38;3.22;;;1.83;;
51459;SDS011;37534;39.772;2.718;2023-08-31T13:24:04;3.50;;;1.67;;
51459;SDS011;37534;39.772;2.718;2023-08-31T13:26:30;2.88;;;1.90;;
51459;SDS011;37534;39.772;2.718;2023-08-31T13:28:55;2.88;;;1.77;;
51459;SDS011;37534;39.772;2.718;2023-08-31T13:31:21;3.10;;;1.67;;
51459;SDS011;37534;39.772;2.718;2023-08-31T13:33:46;2.38;;;1.60;;
51459;SDS011;37534;39.772;2.718;2023-08-31T13:36:12;6.68;;;2.28;;
51459;SDS011;37534;39.772;2.718;2023-08-31T13:38:40;2.15;;;1.55;;
51459;SDS011;37534;39.772;2.718;2023-08-31T13:41:06;2.28;;;1.83;;
51459;SDS011;37534;39.772;2.718;2023-08-31T13:43:33;5.63;;;1.73;;
51459;SDS011;37534;39.772;2.718;2023-08-31T13:45:58;3.42;;;1.92;;
51459;SDS011;37534;39.772;2.718;2023-08-31T13:48:24;2.28;;;1.52;;
51459;SDS011;37534;39.772;2.718;2023-08-31T13:50:50;4.32;;;1.90;;
51459;SDS011;37534;39.772;2.718;2023-08-31T13:53:15;5.28;;;2.22;;
51459;SDS011;37534;39.772;2.718;2023-08-31T13:55:41;2.80;;;1.85;;
51459;SDS011;37534;39.772;2.718;2023-08-31T13:58:07;11.15;;;2.20;;
51459;SDS011;37534;39.772;2.718;2023-08-31T14:00:34;4.80;;;1.60;;
51459;SDS011;37534;39.772;2.718;2023-08-31T14:03:00;5.95;;;2.50;;
51459;SDS011;37534;39.772;2.718;2023-08-31T14:05:31;4.63;;;2.03;;
51459;SDS011;37534;39.772;2.718;2023-08-31T14:07:57;8.73;;;2.15;;
51459;SDS011;37534;39.772;2.718;2023-08-31T14:10:26;3.53;;;1.60;;
51459;SDS011;37534;39.772;2.718;2023-08-31T14:12:52;3.85;;;2.33;;
51459;SDS011;37534;39.772;2.718;2023-08-31T14:15:17;2.80;;;1.38;;
51459;SDS011;37534;39.772;2.718;2023-08-31T14:17:43;2.33;;;1.58;;
51459;SDS011;37534;39.772;2.718;2023-08-31T14:20:08;2.13;;;1.58;;
51459;SDS011;37534;39.772;2.718;2023-08-31T14:22:36;4.03;;;1.95;;
51459;SDS011;37534;39.772;2.718;2023-08-31T14:25:02;3.88;;;2.22;;
51459;SDS011;37534;39.772;2.718;2023-08-31T14:27:29;6.07;;;1.83;;
51459;SDS011;37534;39.772;2.718;2023-08-31T14:29:56;3.88;;;2.42;;
51459;SDS011;37534;39.772;2.718;2023-08-31T14:32:24;9.07;;;2.15;;
51459;SDS011;37534;39.772;2.718;2023-08-31T14:34:50;2.78;;;1.40;;
51459;SDS011;37534;39.772;2.718;2023-08-31T14:37:15;3.20;;;1.88;;
51459;SDS011;37534;39.772;2.718;2023-08-31T14:39:41;9.88;;;1.98;;
51459;SDS011;37534;39.772;2.718;2023-08-31T14:42:06;4.22;;;2.20;;
51459;SDS011;37534;39.772;2.718;2023-08-31T14:44:32;3.70;;;1.73;;
51459;SDS011;37534;39.772;2.718;2023-08-31T14:46:58;3.42;;;1.95;;
51459;SDS011;37534;39.772;2.718;2023-08-31T14:49:24;3.35;;;1.90;;
51459;SDS011;37534;39.772;2.718;2023-08-31T14:51:50;3.72;;;2.05;;
51459;SDS011;37534;39.772;2.718;2023-08-31T14:54:16;4.30;;;2.00;;
51459;SDS011;37534;39.772;2.718;2023-08-31T14:56:41;3.10;;;1.80;;
51459;SDS011;37534;39.772;2.718;2023-08-31T14:59:07;4.30;;;1.70;;
51459;SDS011;37534;39.772;2.718;2023-08-31T15:01:32;3.42;;;1.88;;
51459;SDS011;37534;39.772;2.718;2023-08-31T15:03:58;3.72;;;2.00;;
51459;SDS011;37534;39.772;2.718;2023-08-31T15:06:24;5.18;;;2.65;;
51459;SDS011;37534;39.772;2.718;2023-08-31T15:08:49;5.10;;;2.20;;
51459;SDS011;37534;39.772;2.718;2023-08-31T15:11:15;17.65;;;3.03;;
51459;SDS011;37534;39.772;2.718;2023-08-31T15:13:40;3.25;;;2.22;;
51459;SDS011;37534;39.772;2.718;2023-08-31T15:16:06;12.85;;;2.45;;
51459;SDS011;37534;39.772;2.718;2023-08-31T15:18:32;7.47;;;2.58;;